createdAt,value
2019-02-20T00:01:43.698Z,83.10
2019-02-20T00:04:12.082Z,81.10
2019-02-20T00:06:40.476Z,82.90
2019-02-20T00:09:08.928Z,80.50
2019-02-20T00:11:37.340Z,80.40
2019-02-20T00:14:05.792Z,79.80
2019-02-20T00:16:34.187Z,84.00
2019-02-20T00:19:02.567Z,81.30
2019-02-20T00:21:30.953Z,81.80
2019-02-20T00:23:59.339Z,84.30
2019-02-20T00:26:27.730Z,81.70
2019-02-20T00:28:56.419Z,81.20
2019-02-20T00:31:24.813Z,84.40
2019-02-20T00:33:53.268Z,84.20
2019-02-20T00:36:21.659Z,82.50
2019-02-20T00:38:50.037Z,81.80
2019-02-20T00:41:18.434Z,85.60
2019-02-20T00:43:48.444Z,83.80
2019-02-20T00:46:21.171Z,83.70
2019-02-20T00:48:51.200Z,86.80
2019-02-20T00:51:36.494Z,85.70
2019-02-20T00:54:06.748Z,85.10
2019-02-20T00:56:35.125Z,84.50
2019-02-20T00:59:03.511Z,84.80
2019-02-20T01:01:31.887Z,87.10
2019-02-20T01:04:00.859Z,88.70
2019-02-20T01:06:29.236Z,85.20
2019-02-20T01:08:57.632Z,83.40
2019-02-20T01:11:26.185Z,84.40
2019-02-20T01:13:54.577Z,85.00
2019-02-20T01:16:22.971Z,83.40
2019-02-20T01:18:51.351Z,83.80
2019-02-20T01:21:19.739Z,81.60
2019-02-20T01:23:48.435Z,83.50
2019-02-20T01:26:16.821Z,82.00
2019-02-20T01:28:45.203Z,81.40
2019-02-20T01:31:13.591Z,83.00
2019-02-20T01:33:42.368Z,81.40
2019-02-20T01:36:10.752Z,80.80
2019-02-20T01:38:39.151Z,82.30
2019-02-20T01:41:07.523Z,81.30
2019-02-20T01:43:35.921Z,83.80
2019-02-20T01:46:04.444Z,82.60
2019-02-20T01:48:32.835Z,84.70
2019-02-20T01:51:01.218Z,85.50
2019-02-20T01:53:29.679Z,83.70
2019-02-20T01:55:58.064Z,84.70
2019-02-20T01:58:26.465Z,82.50
2019-02-20T02:00:54.846Z,90.50
2019-02-20T02:03:23.234Z,86.20
2019-02-20T02:05:51.617Z,84.20
2019-02-20T02:08:20.010Z,84.40
2019-02-20T02:10:48.385Z,85.30
2019-02-20T02:13:16.783Z,86.10
2019-02-20T04:01:00.458Z,89.90
2019-02-20T04:03:28.846Z,87.10
2019-02-20T04:05:57.239Z,90.00
2019-02-20T04:08:25.635Z,90.70
2019-02-20T04:10:54.021Z,90.80
2019-02-20T04:13:22.477Z,89.10
2019-02-20T04:15:51.157Z,90.10
2019-02-20T04:18:19.553Z,90.20
2019-02-20T04:20:47.936Z,91.90
2019-02-20T04:23:16.331Z,92.10
2019-02-20T04:25:44.715Z,91.10
2019-02-20T04:28:13.092Z,91.60
2019-02-20T04:30:41.543Z,91.20
2019-02-20T04:33:09.979Z,92.60
2019-02-20T04:35:38.395Z,92.20
2019-02-20T04:38:06.783Z,92.60
2019-02-20T04:40:35.172Z,92.60
2019-02-20T04:43:03.564Z,91.90
2019-02-20T04:45:31.952Z,91.20
2019-02-20T04:48:00.340Z,91.50
2019-02-20T04:50:28.716Z,91.90
2019-02-20T04:52:57.107Z,90.50
2019-02-20T04:55:25.510Z,90.40
2019-02-20T04:58:16.190Z,90.40
2019-02-20T05:00:44.573Z,90.40
2019-02-20T05:03:12.969Z,89.20
2019-02-20T05:05:41.487Z,91.90
2019-02-20T05:08:09.868Z,90.70
2019-02-20T05:10:38.253Z,91.30
2019-02-20T05:13:06.639Z,91.40
2019-02-20T05:15:35.028Z,92.00
2019-02-20T05:18:03.412Z,91.20
2019-02-20T05:20:31.789Z,88.80
2019-02-20T05:23:00.172Z,88.40
2019-02-20T05:25:28.569Z,89.30
2019-02-20T05:27:56.956Z,87.70
2019-02-20T05:30:25.344Z,87.90
2019-02-20T05:32:53.723Z,88.30
2019-02-20T05:35:22.113Z,88.50
2019-02-20T05:37:50.502Z,87.20
2019-02-20T05:40:18.894Z,87.50
2019-02-20T05:42:48.371Z,89.00
2019-02-20T05:45:16.954Z,88.10
2019-02-20T05:47:45.331Z,88.30
2019-02-20T05:50:13.717Z,91.00
2019-02-20T05:52:42.092Z,91.00
2019-02-20T05:55:10.556Z,91.70
2019-02-20T05:57:38.937Z,92.50
2019-02-20T06:00:10.680Z,92.80
2019-02-20T06:02:39.045Z,92.70
2019-02-20T06:05:07.591Z,93.30
2019-02-20T06:07:36.027Z,93.00
2019-02-20T06:10:06.252Z,93.40
2019-02-20T06:12:34.640Z,93.50
2019-02-20T06:15:03.102Z,93.60
2019-02-20T06:17:31.471Z,93.60
2019-02-20T06:20:00.306Z,93.60
2019-02-20T06:22:28.732Z,93.80
2019-02-20T06:24:57.205Z,94.20
2019-02-20T06:27:25.583Z,94.00
2019-02-20T06:29:53.981Z,94.20
2019-02-20T06:32:24.068Z,94.20
2019-02-20T06:34:52.477Z,93.70
2019-02-20T06:37:20.860Z,93.90
2019-02-20T06:39:49.261Z,94.10
2019-02-20T06:42:17.721Z,94.40
2019-02-20T06:44:46.111Z,94.60
2019-02-20T06:47:14.506Z,94.80
2019-02-20T06:49:42.894Z,95.40
2019-02-20T06:52:11.582Z,95.50
2019-02-20T06:54:39.983Z,95.60
2019-02-20T06:57:08.361Z,95.40
2019-02-20T06:59:36.739Z,95.20
2019-02-20T07:02:05.212Z,95.20
2019-02-20T07:04:33.591Z,95.30
2019-02-20T07:07:22.927Z,95.40
2019-02-20T07:10:16.740Z,95.20
2019-02-20T07:12:48.491Z,94.90
2019-02-20T07:15:25.796Z,95.00
2019-02-20T07:18:00.149Z,95.20
2019-02-20T07:20:58.767Z,94.80
2019-02-20T07:23:34.163Z,94.90
2019-02-20T07:26:17.627Z,94.50
2019-02-20T07:29:11.928Z,94.60
2019-02-20T07:31:40.329Z,94.50
2019-02-20T07:34:08.714Z,94.40
2019-02-20T07:36:37.103Z,94.50
2019-02-20T07:39:06.191Z,94.20
2019-02-20T07:41:34.583Z,94.00
2019-02-20T07:44:03.052Z,93.60
2019-02-20T07:46:31.436Z,92.10
2019-02-20T07:48:59.813Z,91.20
2019-02-20T07:51:28.241Z,90.60
2019-02-20T07:53:56.992Z,90.00
2019-02-20T07:56:25.383Z,89.10
2019-02-20T07:58:53.773Z,86.90
2019-02-20T08:01:22.159Z,85.90
2019-02-20T08:03:50.532Z,85.80
2019-02-20T08:06:18.921Z,85.10
2019-02-20T08:08:47.324Z,86.10
2019-02-20T08:11:15.697Z,83.00
2019-02-20T08:13:44.087Z,81.50
2019-02-20T08:16:12.468Z,81.00
2019-02-20T08:18:40.867Z,80.00
2019-02-20T08:21:09.255Z,78.30
2019-02-20T08:23:37.968Z,79.80
2019-02-20T08:26:06.346Z,76.30
2019-02-20T08:28:34.735Z,74.10
2019-02-20T08:31:03.120Z,74.20
2019-02-20T08:33:31.514Z,73.90
2019-02-20T08:35:59.899Z,72.50
2019-02-20T08:38:28.287Z,72.00
2019-02-20T08:40:56.670Z,72.80
2019-02-20T08:43:25.067Z,71.60
2019-02-20T08:45:53.795Z,73.00
2019-02-20T08:48:22.191Z,69.40
2019-02-20T08:50:50.580Z,67.80
2019-02-20T08:53:19.056Z,67.00
2019-02-20T08:55:47.489Z,66.20
2019-02-20T08:58:15.955Z,66.40
2019-02-20T09:00:44.359Z,65.70
2019-02-20T09:03:12.748Z,65.20
2019-02-20T09:05:41.139Z,65.40
2019-02-20T09:08:09.532Z,63.60
2019-02-20T09:10:37.925Z,63.90
2019-02-20T09:13:06.323Z,60.90
2019-02-20T09:15:34.979Z,62.70
2019-02-20T09:18:03.460Z,59.10
2019-02-20T09:20:31.835Z,61.40
2019-02-20T09:23:00.240Z,59.80
2019-02-20T09:25:28.632Z,59.20
2019-02-20T09:27:57.021Z,56.50
2019-02-20T09:30:28.493Z,57.50
2019-02-20T09:32:55.531Z,55.30
2019-02-20T09:35:23.948Z,55.30
2019-02-20T09:37:52.648Z,56.40
2019-02-20T09:40:21.065Z,56.50
2019-02-20T09:42:51.587Z,55.50
2019-02-20T09:45:19.448Z,56.50
2019-02-20T09:47:47.832Z,55.60
2019-02-20T09:50:16.237Z,55.80
2019-02-20T09:52:51.986Z,54.50
2019-02-20T09:55:14.819Z,55.30
2019-02-20T09:57:43.225Z,54.00
2019-02-20T10:00:16.484Z,53.90
2019-02-20T10:02:44.865Z,52.70
2019-02-20T10:05:13.403Z,54.20
2019-02-20T10:07:41.822Z,54.00
2019-02-20T10:10:11.440Z,52.00
2019-02-20T10:12:39.827Z,53.80
2019-02-20T10:15:14.366Z,56.60
2019-02-20T10:17:42.753Z,52.30
2019-02-20T10:20:11.591Z,51.90
2019-02-20T10:22:40.051Z,51.20
2019-02-20T10:25:12.797Z,51.30
2019-02-20T10:27:41.259Z,51.80
2019-02-20T10:30:15.188Z,55.60
2019-02-20T10:32:43.583Z,50.30
2019-02-20T10:35:12.143Z,50.30
2019-02-20T10:37:40.537Z,50.30
2019-02-20T10:40:10.277Z,51.70
2019-02-20T10:42:38.663Z,48.80
2019-02-20T10:45:12.607Z,49.20
2019-02-20T10:47:40.987Z,50.70
2019-02-20T10:50:13.763Z,50.60
2019-02-20T10:52:42.459Z,49.20
2019-02-20T10:55:11.187Z,48.90
2019-02-20T10:57:39.651Z,51.30
2019-02-20T11:00:23.618Z,50.30
2019-02-20T11:02:44.887Z,48.60
2019-02-20T11:05:13.618Z,48.30
2019-02-20T11:07:42.083Z,49.60
2019-02-20T11:10:10.557Z,50.00
2019-02-20T11:12:38.952Z,49.10
2019-02-20T11:15:08.077Z,49.60
2019-02-20T11:17:37.195Z,50.10
2019-02-20T11:20:09.184Z,50.40
2019-02-20T11:22:37.583Z,50.00
2019-02-20T11:25:09.120Z,47.50
2019-02-20T11:27:39.448Z,48.90
2019-02-20T11:30:08.831Z,49.10
2019-02-20T11:32:37.268Z,46.40
2019-02-20T11:35:07.188Z,48.40
2019-02-20T11:37:35.589Z,48.60
2019-02-20T11:40:05.325Z,47.00
2019-02-20T11:42:33.721Z,46.80
2019-02-20T11:45:02.115Z,47.60
2019-02-20T11:47:30.509Z,46.10
2019-02-20T11:49:58.891Z,46.60
2019-02-20T11:52:27.359Z,46.60
2019-02-20T11:54:57.149Z,53.80
2019-02-20T11:57:25.752Z,49.00
2019-02-20T11:59:54.131Z,44.80
2019-02-20T12:02:22.819Z,45.20
2019-02-20T12:04:51.204Z,46.00
2019-02-20T12:07:19.641Z,46.90
2019-02-20T12:09:48.032Z,47.60
2019-02-20T12:12:16.428Z,58.20
2019-02-20T12:14:44.815Z,44.30
2019-02-20T12:17:13.212Z,44.60
2019-02-20T12:19:41.609Z,45.50
2019-02-20T12:22:10.071Z,48.80
2019-02-20T12:24:38.460Z,55.10
2019-02-20T12:27:06.850Z,44.70
2019-02-20T12:29:35.236Z,41.70
2019-02-20T12:32:03.623Z,42.20
2019-02-20T12:34:32.022Z,44.00
2019-02-20T12:37:00.404Z,41.70
2019-02-20T12:39:28.819Z,42.90
2019-02-20T12:41:57.194Z,42.40
2019-02-20T12:44:25.892Z,57.90
2019-02-20T12:46:54.277Z,40.10
2019-02-20T12:49:22.741Z,43.00
2019-02-20T12:51:51.128Z,42.90
2019-02-20T12:54:19.518Z,54.80
2019-02-20T12:56:47.897Z,45.50
2019-02-20T12:59:16.299Z,52.60
2019-02-20T13:01:44.681Z,42.30
2019-02-20T13:04:13.080Z,42.30
2019-02-20T13:06:41.457Z,43.50
2019-02-20T13:09:11.556Z,42.50
2019-02-20T13:11:39.952Z,52.40
2019-02-20T13:14:08.609Z,43.60
2019-02-20T13:16:36.987Z,45.40
2019-02-20T13:19:05.386Z,46.30
2019-02-20T13:21:33.776Z,47.00
2019-02-20T13:24:02.181Z,45.80
2019-02-20T13:26:30.563Z,46.50
2019-02-20T13:28:58.955Z,44.70
2019-02-20T13:31:27.342Z,46.90
2019-02-20T13:33:55.743Z,45.90
2019-02-20T13:36:24.125Z,46.30
2019-02-20T13:38:52.526Z,44.70
2019-02-20T13:41:21.300Z,44.10
2019-02-20T13:43:49.700Z,44.40
2019-02-20T13:46:18.144Z,46.10
2019-02-20T13:48:46.532Z,48.40
2019-02-20T13:51:14.920Z,52.30
2019-02-20T13:53:46.462Z,49.10
2019-02-20T13:56:13.432Z,46.30
2019-02-20T13:58:41.832Z,44.00
2019-02-20T14:01:10.239Z,45.50
2019-02-20T14:03:38.625Z,44.90
2019-02-20T14:06:07.083Z,46.00
2019-02-20T14:08:35.468Z,49.30
2019-02-20T14:11:03.938Z,48.20
2019-02-20T14:13:32.325Z,50.40
2019-02-20T14:16:00.976Z,48.20
2019-02-20T14:18:29.369Z,46.10
2019-02-20T14:20:57.833Z,46.40
2019-02-20T14:23:26.220Z,48.70
2019-02-20T14:25:54.635Z,46.80
2019-02-20T14:28:23.396Z,47.50
2019-02-20T14:30:51.796Z,47.40
2019-02-20T14:33:20.180Z,47.60
2019-02-20T14:35:48.839Z,49.00
2019-02-20T14:38:17.228Z,48.90
2019-02-20T14:40:45.623Z,48.50
2019-02-20T14:43:14.004Z,50.30
2019-02-20T14:45:42.775Z,49.20
2019-02-20T14:48:11.156Z,49.40
2019-02-20T14:50:39.549Z,50.00
2019-02-20T14:53:08.001Z,49.60
2019-02-20T14:55:36.404Z,50.20
2019-02-20T14:58:04.784Z,51.70
2019-02-20T15:00:33.247Z,50.80
2019-02-20T15:03:02.008Z,50.40
2019-02-20T15:05:30.571Z,51.10
2019-02-20T15:07:59.076Z,50.70
2019-02-20T15:10:27.490Z,49.80
2019-02-20T15:12:55.859Z,50.10
2019-02-20T15:15:24.271Z,50.10
2019-02-20T15:17:52.659Z,50.30
2019-02-20T15:20:21.040Z,50.10
2019-02-20T15:22:49.439Z,51.20
2019-02-20T15:25:17.821Z,50.70
2019-02-20T15:27:46.239Z,51.00
2019-02-20T15:30:17.551Z,64.70
2019-02-20T15:32:45.959Z,52.00
2019-02-20T15:35:14.722Z,52.60
2019-02-20T15:37:43.109Z,53.40
2019-02-20T15:40:11.498Z,52.50
2019-02-20T15:42:39.890Z,61.30
2019-02-20T15:45:10.010Z,57.90
2019-02-20T15:47:38.474Z,53.40
2019-02-20T15:50:09.966Z,52.40
2019-02-20T15:52:39.730Z,53.00
2019-02-20T15:55:11.399Z,58.40
2019-02-20T15:57:39.924Z,53.90
2019-02-20T16:00:11.383Z,53.30
2019-02-20T16:02:39.785Z,52.90
2019-02-20T16:05:08.304Z,53.50
2019-02-20T16:07:36.698Z,58.50
2019-02-20T16:10:07.385Z,59.00
2019-02-20T16:12:35.853Z,62.00
2019-02-20T16:15:05.484Z,55.00
2019-02-20T16:17:33.878Z,56.40
2019-02-20T16:20:02.328Z,55.80
2019-02-20T16:22:31.174Z,58.50
2019-02-20T16:24:59.549Z,54.60
2019-02-20T16:27:27.944Z,67.90
2019-02-20T16:29:56.320Z,57.50
2019-02-20T16:32:24.712Z,56.40
2019-02-20T16:34:53.083Z,58.70
2019-02-20T16:37:21.777Z,58.10
2019-02-20T16:39:50.536Z,55.90
2019-02-20T16:42:18.927Z,60.80
2019-02-20T16:44:47.308Z,55.80
2019-02-20T16:47:15.716Z,56.60
2019-02-20T16:49:44.108Z,56.60
2019-02-20T16:52:12.503Z,57.00
2019-02-20T16:54:40.890Z,56.40
2019-02-20T16:57:10.076Z,56.40
2019-02-20T16:59:38.523Z,56.70
2019-02-20T17:02:08.060Z,56.90
2019-02-20T17:04:36.440Z,57.30
2019-02-20T17:07:04.833Z,57.60
2019-02-20T17:09:34.339Z,57.60
2019-02-20T17:12:03.319Z,57.70
2019-02-20T17:14:31.732Z,57.90
2019-02-20T17:17:00.111Z,58.20
2019-02-20T17:19:28.516Z,58.30
2019-02-20T17:21:56.891Z,58.70
2019-02-20T17:24:25.284Z,58.60
2019-02-20T17:26:53.677Z,58.60
2019-02-20T17:29:22.349Z,58.70
2019-02-20T17:31:50.722Z,59.00
2019-02-20T17:34:19.121Z,58.90
2019-02-20T17:36:47.503Z,59.10
2019-02-20T17:39:15.967Z,59.10
2019-02-20T17:41:44.349Z,59.60
2019-02-20T17:44:12.749Z,59.60
2019-02-20T17:46:41.135Z,59.90
2019-02-20T17:49:09.537Z,60.00
2019-02-20T17:51:37.933Z,60.00
2019-02-20T17:54:06.322Z,60.00
2019-02-20T17:56:34.704Z,60.00
2019-02-20T17:59:04.574Z,60.00
2019-02-20T18:01:32.955Z,60.20
2019-02-20T18:04:01.379Z,61.00
2019-02-20T18:06:29.765Z,61.00
2019-02-20T18:08:58.209Z,61.70
2019-02-20T18:11:26.575Z,62.10
2019-02-20T18:13:54.963Z,62.20
2019-02-20T18:16:23.354Z,61.60
2019-02-20T18:18:51.751Z,61.40
2019-02-20T18:21:20.136Z,61.50
2019-02-20T18:23:48.528Z,61.80
2019-02-20T18:26:16.948Z,61.60
2019-02-20T18:28:45.340Z,61.60
2019-02-20T18:31:13.753Z,61.80
2019-02-20T18:33:42.137Z,62.60
2019-02-20T18:36:11.592Z,62.50
2019-02-20T18:38:40.195Z,62.90
2019-02-20T18:41:08.728Z,63.00
2019-02-20T18:43:37.133Z,63.60
2019-02-20T18:46:05.701Z,64.10
2019-02-20T18:48:34.084Z,62.80
2019-02-20T18:51:02.490Z,63.10
2019-02-20T18:53:31.137Z,64.20
2019-02-20T18:55:59.535Z,64.20
2019-02-20T18:58:33.907Z,64.50
2019-02-20T19:00:58.139Z,64.40
2019-02-20T19:03:26.516Z,64.90
2019-02-20T19:05:54.911Z,65.00
2019-02-20T19:08:34.836Z,64.50
2019-02-20T19:11:08.781Z,65.70
2019-02-20T19:14:01.134Z,66.50
2019-02-20T19:16:49.024Z,65.60
2019-02-20T19:19:32.632Z,65.80
2019-02-20T19:22:27.879Z,66.60
2019-02-20T19:25:27.835Z,66.30
2019-02-20T19:28:01.821Z,66.60
2019-02-20T19:30:47.948Z,67.20
2019-02-20T19:33:34.180Z,67.70
2019-02-20T19:36:29.463Z,66.60
2019-02-20T19:39:35.499Z,67.70
2019-02-20T19:42:21.729Z,68.30
2019-02-20T19:45:15.363Z,68.90
2019-02-20T19:48:07.760Z,68.50
2019-02-20T19:50:47.593Z,68.50
2019-02-20T19:53:28.042Z,69.40
2019-02-20T19:56:17.630Z,69.10
2019-02-20T19:59:08.536Z,69.00
2019-02-20T20:01:48.464Z,70.30
2019-02-20T20:04:31.448Z,69.90
2019-02-20T20:07:19.600Z,71.10
2019-02-20T20:10:05.692Z,71.30
2019-02-20T20:13:01.076Z,70.80
2019-02-20T20:15:37.763Z,70.70
2019-02-20T20:18:27.140Z,71.40
2019-02-20T20:21:04.141Z,70.90
2019-02-20T20:23:44.103Z,74.10
2019-02-20T20:26:30.286Z,73.10
2019-02-20T20:29:06.245Z,73.60
2019-02-20T20:31:43.506Z,72.30
2019-02-20T20:34:17.538Z,72.80
2019-02-20T20:36:57.850Z,73.20
2019-02-20T20:39:36.491Z,74.00
2019-02-20T20:42:10.971Z,75.30
2019-02-20T20:44:42.424Z,74.80
2019-02-20T20:47:19.517Z,75.80
2019-02-20T20:50:14.456Z,74.90
2019-02-20T20:52:45.921Z,74.30
2019-02-20T20:55:43.016Z,75.40
2019-02-20T20:58:35.661Z,77.50
2019-02-20T21:01:07.124Z,77.50
2019-02-20T21:03:47.360Z,75.10
2019-02-20T21:06:36.227Z,76.80
2019-02-20T21:09:07.711Z,74.90
2019-02-20T21:11:55.777Z,75.40
2019-02-20T21:14:35.530Z,76.00
2019-02-20T21:17:12.966Z,77.50
2019-02-20T21:19:50.716Z,77.00
2019-02-20T21:22:37.301Z,75.40
2019-02-20T21:25:26.910Z,73.50
2019-02-20T21:28:14.689Z,75.60
2019-02-20T21:30:51.824Z,79.20
2019-02-20T21:33:50.106Z,78.10
2019-02-20T21:36:24.151Z,76.40
2019-02-20T21:39:04.483Z,77.10
2019-02-20T21:41:45.004Z,75.90
2019-02-20T21:44:22.316Z,76.00
2019-02-20T21:46:59.734Z,77.30
2019-02-20T21:49:36.935Z,76.20
2019-02-20T21:52:25.277Z,79.30
2019-02-20T21:55:14.763Z,78.20
2019-02-20T21:58:04.185Z,79.70
2019-02-20T22:00:41.280Z,78.90
2019-02-20T22:03:21.512Z,78.70
2019-02-20T22:05:58.238Z,79.30
2019-02-20T22:09:02.364Z,79.80
2019-02-20T22:11:42.508Z,78.50
2019-02-20T22:14:37.974Z,78.20
2019-02-20T22:17:27.552Z,80.00
2019-02-20T22:20:15.239Z,78.50
2019-02-20T22:22:58.404Z,77.70
2019-02-20T22:25:35.430Z,76.50
2019-02-20T22:28:12.977Z,78.40
2019-02-20T22:31:05.772Z,80.90
2019-02-20T22:33:56.795Z,79.30
2019-02-20T22:37:01.700Z,79.30
2019-02-20T22:39:36.124Z,79.50
2019-02-20T22:42:13.292Z,78.50
2019-02-20T22:45:01.538Z,77.70
2019-02-20T22:47:41.734Z,77.20
2019-02-20T22:50:27.507Z,79.30
2019-02-20T22:52:58.976Z,79.20
2019-02-20T22:55:48.288Z,79.40
2019-02-20T22:58:28.819Z,79.00
2019-02-20T23:01:21.147Z,78.80
2019-02-20T23:03:52.835Z,77.70
2019-02-20T23:06:36.479Z,78.90
2019-02-20T23:09:28.853Z,78.70
2019-02-20T23:12:11.467Z,78.20
2019-02-20T23:14:59.759Z,79.90
2019-02-20T23:17:28.623Z,79.10
2019-02-20T23:19:57.179Z,77.30
2019-02-20T23:22:25.847Z,79.00
2019-02-20T23:24:54.232Z,79.70
2019-02-20T23:27:22.671Z,80.40
2019-02-20T23:29:51.035Z,82.20
2019-02-20T23:32:19.435Z,83.20
2019-02-20T23:34:47.890Z,87.40
2019-02-20T23:37:16.287Z,85.80
2019-02-20T23:39:44.674Z,81.60
2019-02-20T23:42:13.070Z,83.60
2019-02-20T23:44:41.450Z,82.70
2019-02-20T23:47:09.840Z,81.60
2019-02-20T23:49:38.294Z,82.60
2019-02-20T23:52:06.702Z,83.70
2019-02-20T23:54:35.082Z,87.90
2019-02-20T23:57:03.555Z,87.10
2019-02-20T23:59:31.952Z,84.70
